Knjazevac, Serbia
Current Conditions -  °F | °C
As of 2:30 PM on Sunday 23 Nov 2014 (Local Time) from LYNI Reporting Station
Scattered Clouds Scattered Clouds  
Wind Chill: 43°   Ceiling: Unl
Heat Index: 46°   Visibility: 6mi
Dew Point: 34°   Wind: 7mph
Humidity: 62%   Direction: 290°WNW
Pressure: 30.39"   Gusts: NA
Location:  43.57°N, 22.26°E
Report Text: LYNI 231230Z 29006KT 250V340 9999 SCT037 08/01 Q1029
Loading
Personal Weather Stations






























Interactive Weather Map New forecast layout! Learn more

10-Day Weather Forecast

Advertisements
Track Severe Weather on mobile